Terminal Aerodrome Forecast
Issued by NWS Newport/Morehead City, NC

Home | Current Version | Previous Version | Text Only | Print | Product List | Glossary On
Versions: 1 2 3 4 5 6 7 8 9 10 11 12 13 14 15
000
FTUS42 KMHX 150559
TAFEWN
TAF
KEWN 150559Z 1506/1606 00000KT 6SM BR OVC011
     FM150800 00000KT 3SM BR SCT003 BKN007
     FM151300 00000KT P6SM SCT007
     FM151400 22004KT P6SM SCT040=

USA.gov is the U.S. government's official web portal to all federal, state and local government web resources and services.